Time;durP1;ratioP1;P1;durP2;ratioP2;P2;SDS_P1;SDS_P2;PMS_P1;PMS_P2;Temp;Humidity;BMP_temperature;BMP_pressure;BME280_temperature;BME280_humidity;BME280_pressure;Samples;Min_cycle;Max_cycle;Signal;HPM_P1;HPM_P2
2022/09/27 00:02:17;;;;;;;;;2.00;2.00;;;;;11.79;78.43;100208.06;5088163;28;49423;-70
2022/09/27 00:04:42;;;;;;;;;3.00;2.00;;;;;11.76;78.29;100208.91;5088906;28;49255;-75
2022/09/27 00:07:09;;;;;;;;;5.75;1.75;;;;;11.83;78.44;100209.88;5089543;28;49675;-74
2022/09/27 00:09:35;;;;;;;;;0.25;0.25;;;;;11.76;78.25;100209.78;5088404;28;49903;-75
2022/09/27 00:12:00;;;;;;;;;2.00;1.00;;;;;11.79;78.28;100211.56;5088564;28;49660;-70
2022/09/27 00:14:26;;;;;;;;;2.75;1.50;;;;;11.74;77.98;100208.00;5088379;28;49842;-72
2022/09/27 00:16:51;;;;;;;;;2.00;2.00;;;;;11.66;77.97;100207.06;5089146;27;49443;-72
2022/09/27 00:19:20;;;;;;;;;1.00;1.00;;;;;11.73;78.59;100219.41;5088053;27;50027;-71
2022/09/27 00:21:46;;;;;;;;;1.75;1.75;;;;;11.63;78.60;100197.44;5089542;28;49254;-73
2022/09/27 00:24:13;;;;;;;;;2.00;2.00;;;;;11.69;78.30;100204.50;5087908;27;49422;-71
2022/09/27 00:26:38;;;;;;;;;2.00;2.00;;;;;11.86;78.33;100223.91;5081470;28;49478;-70
2022/09/27 00:29:03;;;;;;;;;3.00;1.75;;;;;11.87;78.13;100216.91;5087340;28;50036;-72
2022/09/27 00:31:30;;;;;;;;;2.50;2.00;;;;;11.95;78.28;100237.13;5088221;28;49679;-70
2022/09/27 00:33:58;;;;;;;;;1.00;1.00;;;;;11.98;78.04;100241.56;5088230;27;49420;-71
2022/09/27 00:36:24;;;;;;;;;4.00;3.25;;;;;11.97;77.84;100235.41;5088224;28;49206;-73
2022/09/27 00:38:50;;;;;;;;;3.50;2.00;;;;;11.98;78.48;100245.06;5086929;28;50065;-72
2022/09/27 00:41:28;;;;;;;;;4.75;3.00;;;;;11.95;78.97;100247.66;5088020;28;49421;-71
2022/09/27 00:44:03;;;;;;;;;2.00;2.00;;;;;11.93;78.98;100241.50;5081374;27;49531;-70
2022/09/27 00:46:50;;;;;;;;;1.50;1.50;;;;;11.72;79.34;100212.38;5087762;28;49403;-71
2022/09/27 00:50:00;;;;;;;;;2.00;2.00;;;;;11.89;79.48;100246.75;5087222;28;50415;-71
2022/09/27 00:52:41;;;;;;;;;2.50;2.25;;;;;11.84;80.03;100251.06;5087273;27;49339;-70
2022/09/27 00:55:16;;;;;;;;;0.50;0.00;;;;;11.81;79.93;100258.94;5087754;28;49203;-74
2022/09/27 00:57:43;;;;;;;;;2.50;1.50;;;;;11.83;80.04;100255.44;5087865;28;49495;-79
2022/09/27 01:00:12;;;;;;;;;2.00;2.00;;;;;11.88;79.96;100256.38;5088097;28;50151;-78
2022/09/27 01:02:42;;;;;;;;;3.00;2.00;;;;;11.82;79.51;100248.44;5088098;28;49477;-75
2022/09/27 01:05:10;;;;;;;;;3.00;3.00;;;;;11.90;80.00;100265.16;5087770;27;49538;-76
2022/09/27 01:07:35;;;;;;;;;3.75;3.00;;;;;11.76;80.04;100238.69;5084895;28;49607;-78
2022/09/27 01:10:01;;;;;;;;;4.00;3.00;;;;;11.85;79.84;100269.50;5088090;28;49769;-76
2022/09/27 01:12:52;;;;;;;;;4.25;3.25;;;;;11.80;80.14;100257.19;5088236;27;49623;-77
2022/09/27 01:16:00;;;;;;;;;3.75;3.75;;;;;11.81;80.21;100267.72;5086430;28;49909;-77
2022/09/27 01:18:42;;;;;;;;;3.00;2.75;;;;;11.65;80.60;100256.16;5087626;28;49341;-77
2022/09/27 01:21:26;;;;;;;;;3.00;3.00;;;;;11.73;80.69;100267.63;5087308;28;49471;-78
2022/09/27 01:24:15;;;;;;;;;5.50;3.50;;;;;11.71;80.51;100268.47;5087559;28;49522;-78
2022/09/27 01:26:43;;;;;;;;;9.00;3.00;;;;;11.66;80.66;100268.44;5084589;28;49414;-78
2022/09/27 01:29:40;;;;;;;;;3.25;1.75;;;;;11.60;81.03;100260.50;5087818;28;49242;-78
2022/09/27 01:32:30;;;;;;;;;3.00;3.00;;;;;11.57;81.09;100270.09;5087073;28;50203;-78
2022/09/27 01:35:21;;;;;;;;;3.75;2.00;;;;;11.55;81.24;100266.56;5084523;28;49320;-77
2022/09/27 01:37:56;;;;;;;;;3.50;2.75;;;;;11.52;81.20;100263.94;5080922;28;49837;-78
2022/09/27 01:41:03;;;;;;;;;1.75;1.75;;;;;11.46;81.45;100268.25;5087108;28;49596;-76
2022/09/27 01:43:43;;;;;;;;;2.00;1.50;;;;;11.39;81.43;100263.81;5084486;27;50273;-73
2022/09/27 01:46:17;;;;;;;;;1.50;1.25;;;;;11.31;82.23;100251.47;5086550;28;49428;-77
2022/09/27 01:48:48;;;;;;;;;3.75;2.00;;;;;11.36;81.86;100261.16;5085697;28;49774;-77
2022/09/27 01:51:27;;;;;;;;;3.50;2.25;;;;;11.37;81.85;100275.16;5086934;28;49271;-73
2022/09/27 01:53:56;;;;;;;;;1.25;1.00;;;;;11.28;81.67;100260.19;5081220;28;49834;-74
2022/09/27 01:56:33;;;;;;;;;2.75;1.00;;;;;11.35;81.80;100269.03;5085862;28;49589;-73
2022/09/27 01:59:21;;;;;;;;;2.00;2.00;;;;;11.29;82.57;100268.94;5086213;28;49669;-77
2022/09/27 02:01:50;;;;;;;;;1.00;1.00;;;;;11.29;82.34;100275.13;5086735;28;49499;-72
2022/09/27 02:04:23;;;;;;;;;1.25;1.00;;;;;11.27;82.48;100268.94;5086051;28;49706;-76
2022/09/27 02:06:58;;;;;;;;;3.75;1.75;;;;;11.21;82.33;100271.53;5084457;28;49738;-75
2022/09/27 02:09:51;;;;;;;;;2.00;0.50;;;;;11.25;82.21;100277.69;5086003;28;49713;-72
2022/09/27 02:12:24;;;;;;;;;1.00;1.00;;;;;11.24;82.40;100278.53;5086582;28;49576;-71
2022/09/27 02:14:54;;;;;;;;;1.00;1.00;;;;;11.21;82.28;100278.53;5086204;28;49415;-73
2022/09/27 02:17:44;;;;;;;;;0.25;0.25;;;;;11.20;82.37;100276.78;5086257;28;49328;-71
2022/09/27 02:20:46;;;;;;;;;2.50;1.25;;;;;11.18;82.34;100268.84;5085590;27;49576;-72
2022/09/27 02:23:25;;;;;;;;;2.00;1.00;;;;;11.18;82.44;100268.84;5085091;28;49338;-72
2022/09/27 02:25:57;;;;;;;;;1.00;1.00;;;;;11.08;82.08;100254.72;5086508;28;50448;-74
2022/09/27 02:28:38;;;;;;;;;0.50;0.50;;;;;10.98;82.86;100237.09;5079684;28;49475;-71
2022/09/27 02:31:04;;;;;;;;;1.00;1.00;;;;;11.12;82.47;100256.53;5081520;28;49438;-70
2022/09/27 02:33:50;;;;;;;;;1.75;1.75;;;;;11.09;82.78;100253.88;5086342;28;49581;-70
2022/09/27 02:36:16;;;;;;;;;3.00;2.00;;;;;11.10;82.63;100245.16;5085846;28;49987;-70
2022/09/27 02:38:43;;;;;;;;;3.00;2.25;;;;;11.20;82.00;100261.88;5086970;28;49467;-71
2022/09/27 02:41:17;;;;;;;;;3.50;1.25;;;;;11.22;82.21;100254.00;5086977;28;49396;-70
2022/09/27 02:43:46;;;;;;;;;3.25;2.75;;;;;11.21;82.17;100253.13;5086670;28;49605;-70
2022/09/27 02:46:31;;;;;;;;;4.75;1.50;;;;;11.37;81.77;100265.53;5086486;27;50420;-70
2022/09/27 02:49:19;;;;;;;;;0.25;0.25;;;;;11.36;81.54;100255.88;5079701;28;49572;-75
2022/09/27 02:52:15;;;;;;;;;0.25;0.25;;;;;11.43;81.93;100262.09;5082086;28;49608;-71
2022/09/27 02:55:02;;;;;;;;;0.00;0.00;;;;;11.44;81.91;100255.97;5077081;27;49290;-72
2022/09/27 02:57:42;;;;;;;;;2.00;1.00;;;;;11.49;81.71;100264.78;5083400;28;50503;-76
2022/09/27 03:00:15;;;;;;;;;1.00;1.00;;;;;11.54;81.95;100263.06;5086493;28;49781;-76
2022/09/27 03:03:05;;;;;;;;;5.00;1.00;;;;;11.57;81.92;100265.72;5085457;28;49544;-75
2022/09/27 03:05:37;;;;;;;;;1.25;0.00;;;;;11.62;81.82;100263.16;5080853;28;49732;-73
2022/09/27 03:08:03;;;;;;;;;1.00;1.00;;;;;11.68;81.76;100271.09;5087438;27;50250;-71
2022/09/27 03:10:29;;;;;;;;;1.50;1.50;;;;;11.68;85.42;100274.59;5088868;27;49225;-78
2022/09/27 03:12:57;;;;;;;;;2.00;1.00;;;;;11.46;90.87;100273.50;5086925;27;49747;-77
2022/09/27 03:15:22;;;;;;;;;2.00;1.00;;;;;11.41;91.86;100263.84;5089705;28;49697;-78
2022/09/27 03:17:48;;;;;;;;;1.00;1.00;;;;;11.47;90.70;100269.13;5086256;28;50027;-76
2022/09/27 03:20:13;;;;;;;;;2.00;2.00;;;;;11.44;90.06;100267.38;5089502;27;53732;-77
2022/09/27 03:22:39;;;;;;;;;0.75;0.75;;;;;11.43;89.51;100276.13;5089611;27;49708;-77
2022/09/27 03:25:05;;;;;;;;;2.75;0.75;;;;;11.35;89.36;100258.50;5088340;28;49627;-77
2022/09/27 03:27:31;;;;;;;;;2.50;2.00;;;;;11.37;89.62;100260.28;5080693;27;49701;-76
2022/09/27 03:29:57;;;;;;;;;1.00;1.00;;;;;11.49;89.24;100264.78;5089051;27;49277;-77
2022/09/27 03:32:22;;;;;;;;;1.00;0.75;;;;;11.45;89.36;100253.34;5080673;28;50120;-77
2022/09/27 03:34:47;;;;;;;;;4.75;3.50;;;;;11.54;89.33;100273.59;5089986;28;49545;-77
2022/09/27 03:37:13;;;;;;;;;1.75;1.75;;;;;11.46;89.00;100255.09;5089239;27;55767;-76
2022/09/27 03:39:39;;;;;;;;;1.75;1.75;;;;;11.54;88.80;100267.44;5086137;27;52082;-74
2022/09/27 03:42:04;;;;;;;;;1.00;1.00;;;;;11.56;89.03;100261.31;5085370;28;49874;-75
2022/09/27 03:44:31;;;;;;;;;1.00;1.00;;;;;11.44;88.82;100234.94;5089325;28;49198;-76
2022/09/27 03:46:57;;;;;;;;;1.25;1.25;;;;;11.59;88.76;100264.00;5085408;27;49602;-76
2022/09/27 03:49:23;;;;;;;;;2.00;1.00;;;;;11.57;88.32;100268.34;5088197;28;50024;-77
2022/09/27 03:51:48;;;;;;;;;0.75;0.75;;;;;11.53;88.44;100266.56;5088571;27;49885;-76
2022/09/27 03:54:14;;;;;;;;;1.25;1.25;;;;;11.43;88.57;100254.22;5089074;27;49268;-77
2022/09/27 03:56:39;;;;;;;;;1.00;1.00;;;;;11.36;88.19;100242.75;5089140;28;49501;-76
2022/09/27 03:59:04;;;;;;;;;2.00;1.00;;;;;11.41;88.11;100254.19;5088454;27;49372;-76
2022/09/27 04:01:30;;;;;;;;;2.00;1.00;;;;;11.35;88.32;100261.13;5088201;27;49741;-76
2022/09/27 04:03:55;;;;;;;;;3.00;3.00;;;;;11.23;88.52;100250.50;5088224;28;49544;-75
2022/09/27 04:06:21;;;;;;;;;0.00;0.00;;;;;11.32;88.46;100266.38;5088561;27;51461;-73
2022/09/27 04:08:47;;;;;;;;;1.00;1.00;;;;;11.28;88.49;100252.31;5080919;28;49991;-71
2022/09/27 04:11:14;;;;;;;;;1.25;1.25;;;;;11.27;88.38;100253.16;5088219;27;49490;-69
2022/09/27 04:13:39;;;;;;;;;0.00;0.00;;;;;11.24;88.58;100249.66;5088154;28;49459;-70
2022/09/27 04:16:05;;;;;;;;;1.75;0.25;;;;;11.23;88.25;100235.63;5085891;27;49931;-70
2022/09/27 04:18:30;;;;;;;;;1.50;1.00;;;;;11.35;88.51;100245.38;5088724;27;49629;-74
2022/09/27 04:20:56;;;;;;;;;0.00;0.00;;;;;11.30;87.76;100233.94;5087821;28;49225;-72
2022/09/27 04:23:22;;;;;;;;;0.75;0.75;;;;;11.25;88.11;100218.13;5087906;27;49800;-71
2022/09/27 04:25:50;;;;;;;;;2.00;1.75;;;;;11.31;87.75;100225.19;5088300;28;49516;-70
2022/09/27 04:28:15;;;;;;;;;1.50;0.50;;;;;11.29;87.97;100216.41;5088548;28;49660;-70
2022/09/27 04:30:40;;;;;;;;;2.00;0.00;;;;;11.34;87.81;100233.09;5086892;28;49967;-70
2022/09/27 04:33:06;;;;;;;;;1.00;1.00;;;;;11.32;87.42;100232.22;5085826;27;49691;-70
2022/09/27 04:38:15;;;;;;;;;0.50;0.50;;;;;11.42;87.97;100227.06;5086629;28;49558;-70
2022/09/27 04:40:40;;;;;;;;;1.25;1.00;;;;;11.48;87.00;100234.09;5088402;27;49484;-77
2022/09/27 04:43:06;;;;;;;;;0.75;0.00;;;;;11.52;87.06;100235.91;5083281;27;49652;-70
2022/09/27 04:45:31;;;;;;;;;1.25;1.00;;;;;11.48;87.05;100228.84;5087577;28;49852;-71
2022/09/27 04:47:57;;;;;;;;;1.25;1.25;;;;;11.56;86.95;100234.16;5087565;27;49678;-75
2022/09/27 04:50:22;;;;;;;;;2.00;1.00;;;;;11.44;86.57;100214.78;5068603;28;49702;-74
2022/09/27 04:52:51;;;;;;;;;0.00;0.00;;;;;11.57;86.32;100235.91;5082244;28;49900;-78
2022/09/27 04:55:17;;;;;;;;;2.00;2.00;;;;;11.65;86.68;100237.75;5087939;28;50186;-74
2022/09/27 04:57:42;;;;;;;;;2.75;1.75;;;;;11.56;86.03;100221.91;5087631;28;49620;-77
2022/09/27 05:00:08;;;;;;;;;1.00;1.00;;;;;11.71;85.74;100256.22;5087601;27;49529;-72
2022/09/27 05:02:34;;;;;;;;;1.25;1.25;;;;;11.74;86.66;100265.88;5087720;28;49625;-76
2022/09/27 05:04:59;;;;;;;;;0.00;0.00;;;;;11.74;86.82;100266.75;5087233;27;49848;-73
2022/09/27 05:07:25;;;;;;;;;2.00;2.00;;;;;11.77;87.50;100252.72;5089549;27;49357;-70
2022/09/27 05:09:51;;;;;;;;;1.00;1.00;;;;;11.64;87.75;100225.47;5087806;28;49589;-79
2022/09/27 05:12:16;;;;;;;;;2.25;1.00;;;;;11.74;87.93;100234.31;5088601;28;49539;-75
2022/09/27 05:14:41;;;;;;;;;2.50;1.00;;;;;11.70;100.00;100248.31;5086874;27;50154;-72
2022/09/27 05:17:07;;;;;;;;;1.25;0.25;;;;;11.66;100.00;100254.41;5084576;28;54705;-75
2022/09/27 05:19:33;;;;;;;;;1.00;1.00;;;;;11.60;100.00;100251.75;5085725;27;49500;-76
2022/09/27 05:21:59;;;;;;;;;1.75;1.75;;;;;11.51;93.02;100236.78;5087504;28;49876;-74
2022/09/27 05:24:24;;;;;;;;;4.00;1.00;;;;;11.49;90.90;100242.88;5087457;28;49723;-75
2022/09/27 05:26:49;;;;;;;;;1.00;1.00;;;;;11.42;90.45;100248.06;5087590;28;49404;-78
2022/09/27 05:29:16;;;;;;;;;1.00;1.00;;;;;11.30;90.65;100240.09;5088070;28;49516;-84
2022/09/27 05:31:41;;;;;;;;;2.00;2.00;;;;;11.29;90.82;100242.66;5085947;27;49608;-87
2022/09/27 05:34:09;;;;;;;;;2.50;1.00;;;;;11.02;90.81;100215.28;5086390;27;49810;-79
2022/09/27 05:36:36;;;;;;;;;2.75;2.25;;;;;10.94;91.20;100202.94;5102824;27;49634;-80
2022/09/27 05:39:01;;;;;;;;;1.00;1.00;;;;;10.97;90.81;100198.59;5087417;27;49607;-79
2022/09/27 05:41:26;;;;;;;;;1.50;1.50;;;;;10.86;90.36;100173.97;5072985;28;49622;-84
2022/09/27 05:43:52;;;;;;;;;1.50;1.50;;;;;11.23;89.90;100225.13;5087856;28;49644;-83
2022/09/27 05:46:17;;;;;;;;;2.50;1.75;;;;;11.36;90.22;100242.75;5088578;27;49270;-81
2022/09/27 05:48:42;;;;;;;;;2.00;2.00;;;;;11.12;90.73;100197.88;5078813;28;49981;-75
2022/09/27 05:51:07;;;;;;;;;3.25;2.00;;;;;11.52;89.65;100238.53;5084830;28;49990;-79
2022/09/27 05:53:33;;;;;;;;;1.75;1.75;;;;;11.51;89.52;100231.50;5085715;27;49464;-75
2022/09/27 05:56:05;;;;;;;;;2.50;1.00;;;;;11.44;89.73;100225.31;5087308;28;49679;-73
2022/09/27 05:58:30;;;;;;;;;2.00;2.00;;;;;11.51;89.48;100226.25;5086833;28;49767;-74
2022/09/27 06:00:56;;;;;;;;;1.50;1.50;;;;;11.61;89.39;100217.56;5086203;28;49332;-81
2022/09/27 06:03:21;;;;;;;;;6.75;3.25;;;;;11.63;89.74;100231.59;5079304;28;60769;-73
2022/09/27 06:05:47;;;;;;;;;1.00;1.00;;;;;11.65;89.99;100237.75;5081577;28;49578;-76
2022/09/27 06:08:12;;;;;;;;;4.75;3.00;;;;;11.69;89.63;100251.81;5083042;28;49513;-76
2022/09/27 06:10:39;;;;;;;;;8.25;5.50;;;;;11.76;89.10;100240.47;5085739;28;49487;-84
2022/09/27 06:13:09;;;;;;;;;2.50;1.00;;;;;11.73;88.97;100222.91;5085577;28;49988;-82
2022/09/27 06:15:36;;;;;;;;;2.75;1.50;;;;;11.88;88.49;100240.59;5086474;27;49391;-82
2022/09/27 06:18:04;;;;;;;;;1.00;1.00;;;;;11.92;88.11;100247.63;5087110;28;49675;-80
2022/09/27 06:20:30;;;;;;;;;3.00;2.00;;;;;11.93;87.85;100240.63;5086279;27;49289;-75
2022/09/27 06:23:03;;;;;;;;;3.00;3.00;;;;;11.85;87.38;100227.41;5086016;28;49461;-78
2022/09/27 06:25:28;;;;;;;;;1.00;1.00;;;;;12.02;87.30;100249.47;5087216;28;49680;-72
2022/09/27 06:28:10;;;;;;;;;2.00;2.00;;;;;12.01;86.76;100242.44;5086408;27;54374;-74
2022/09/27 06:30:48;;;;;;;;;2.25;2.25;;;;;12.08;87.35;100242.50;5086556;28;49962;-69
2022/09/27 06:33:15;;;;;;;;;4.00;1.25;;;;;12.12;86.66;100253.03;5079121;28;49884;-70
2022/09/27 06:35:41;;;;;;;;;1.25;1.00;;;;;11.89;86.50;100197.66;5070722;28;49752;-70
2022/09/27 06:38:09;;;;;;;;;2.00;2.00;;;;;12.20;86.29;100237.28;5070357;28;49686;-70
2022/09/27 06:40:35;;;;;;;;;4.25;1.75;;;;;12.11;86.60;100222.31;5070765;28;49819;-70
2022/09/27 06:43:02;;;;;;;;;4.50;4.00;;;;;12.16;86.50;100210.09;5069813;28;49619;-67
2022/09/27 06:45:31;;;;;;;;;4.25;2.75;;;;;12.30;86.25;100225.94;5070266;28;49987;-71
2022/09/27 06:47:57;;;;;;;;;4.00;4.00;;;;;12.37;85.75;100227.75;5070479;28;49794;-75
2022/09/27 06:50:23;;;;;;;;;2.00;2.00;;;;;12.41;85.31;100234.78;5070197;27;49604;-74
2022/09/27 06:52:49;;;;;;;;;3.00;2.00;;;;;12.42;85.01;100226.00;5070028;27;51540;-73
2022/09/27 06:55:15;;;;;;;;;2.00;1.25;;;;;12.41;84.39;100216.34;5070216;28;49776;-77
2022/09/27 07:00:25;;;;;;;;;1.50;0.50;;;;;12.57;84.05;100246.25;5070366;27;49811;-75
2022/09/27 07:02:59;;;;;;;;;1.25;1.25;;;;;12.57;84.14;100248.91;5069854;28;49809;-77
2022/09/27 07:05:26;;;;;;;;;1.25;1.25;;;;;12.60;83.72;100254.16;5070014;28;49752;-71
2022/09/27 07:07:56;;;;;;;;;1.00;1.00;;;;;12.55;83.30;100232.22;5070195;28;49975;-71
2022/09/27 07:10:26;;;;;;;;;1.50;1.50;;;;;12.69;83.02;100248.06;5070390;27;49831;-77
2022/09/27 07:12:52;;;;;;;;;4.50;2.50;;;;;12.72;82.60;100250.69;5069928;28;49696;-71
2022/09/27 07:15:20;;;;;;;;;3.00;3.00;;;;;12.82;82.13;100263.03;5070146;28;49595;-75
2022/09/27 07:17:46;;;;;;;;;2.50;1.00;;;;;12.71;82.28;100241.03;5070220;27;49734;-76
2022/09/27 07:20:11;;;;;;;;;2.00;1.00;;;;;12.88;81.94;100261.31;5070175;28;49729;-76
2022/09/27 07:22:42;;;;;;;;;1.00;1.00;;;;;12.94;81.75;100260.47;5069459;28;56433;-73
2022/09/27 07:25:08;;;;;;;;;5.00;0.50;;;;;13.01;81.17;100270.13;5068439;28;50201;-73
2022/09/27 07:27:33;;;;;;;;;4.25;2.25;;;;;13.14;81.08;100273.69;5069859;28;49952;-75
2022/09/27 07:30:00;;;;;;;;;2.00;1.50;;;;;13.21;80.57;100293.91;5070204;28;49822;-76
2022/09/27 07:32:25;;;;;;;;;0.00;0.00;;;;;13.22;80.19;100279.91;5069772;27;49659;-77
2022/09/27 07:34:50;;;;;;;;;1.25;1.25;;;;;13.21;79.68;100275.47;5069746;27;49905;-77
2022/09/27 07:37:16;;;;;;;;;1.75;1.75;;;;;13.33;79.88;100286.06;5069930;27;49957;-77
2022/09/27 07:39:42;;;;;;;;;2.25;0.75;;;;;13.34;79.17;100293.09;5069979;27;49846;-75
2022/09/27 07:42:07;;;;;;;;;1.00;1.00;;;;;13.40;79.84;100287.81;5069685;28;50846;-76
2022/09/27 07:44:32;;;;;;;;;2.00;2.00;;;;;13.39;79.92;100266.72;5069892;28;49806;-72
2022/09/27 07:46:58;;;;;;;;;1.50;1.50;;;;;13.49;79.13;100291.34;5068537;28;49948;-72
2022/09/27 07:49:23;;;;;;;;;0.75;0.75;;;;;13.44;78.41;100291.34;5069707;28;49912;-69
2022/09/27 07:51:49;;;;;;;;;1.00;1.00;;;;;13.51;78.79;100298.41;5069455;27;51536;-73
2022/09/27 07:54:14;;;;;;;;;4.00;1.00;;;;;13.50;78.72;100296.63;5069846;27;49750;-70
2022/09/27 07:56:39;;;;;;;;;0.25;0.25;;;;;13.55;78.29;100307.19;5073311;27;49691;-70
2022/09/27 07:59:05;;;;;;;;;0.00;0.00;;;;;13.48;78.40;100279.91;5073147;28;49822;-73
2022/09/27 08:01:30;;;;;;;;;3.00;2.00;;;;;13.65;78.24;100299.28;5073046;28;50399;-72
2022/09/27 08:03:57;;;;;;;;;1.00;1.00;;;;;13.73;78.19;100313.38;5073725;27;49970;-73
2022/09/27 08:06:23;;;;;;;;;2.00;1.00;;;;;13.75;77.28;100316.88;5066980;28;49909;-70
2022/09/27 08:08:49;;;;;;;;;2.00;1.25;;;;;13.78;77.59;100320.41;5066571;28;49998;-70
2022/09/27 08:11:16;;;;;;;;;1.50;1.50;;;;;13.44;77.27;100259.72;5071356;27;50264;-71
2022/09/27 08:13:42;;;;;;;;;0.75;0.75;;;;;13.72;77.81;100308.09;5072779;28;49721;-73
2022/09/27 08:16:07;;;;;;;;;4.25;1.00;;;;;13.74;77.69;100312.50;5072780;28;49558;-75
2022/09/27 08:18:33;;;;;;;;;0.50;0.00;;;;;13.88;77.26;100324.78;5072940;28;49850;-73
2022/09/27 08:20:59;;;;;;;;;3.75;2.00;;;;;13.96;76.56;100318.66;5072913;28;49609;-75
2022/09/27 08:23:25;;;;;;;;;1.00;1.00;;;;;14.03;76.06;100320.41;5072963;28;49639;-74
2022/09/27 08:25:52;;;;;;;;;1.25;1.00;;;;;14.01;76.14;100311.63;5072670;27;49739;-70
2022/09/27 08:28:18;;;;;;;;;1.75;1.75;;;;;14.08;75.67;100303.69;5073132;27;49669;-71
2022/09/27 08:30:43;;;;;;;;;2.25;1.00;;;;;14.28;74.66;100318.66;5072402;27;49817;-70
2022/09/27 08:33:08;;;;;;;;;2.25;1.50;;;;;14.43;75.71;100323.00;5072052;28;54113;-71
2022/09/27 08:35:34;;;;;;;;;2.50;1.00;;;;;14.60;74.50;100323.88;5072597;27;50030;-70
2022/09/27 08:38:00;;;;;;;;;1.75;1.75;;;;;14.76;73.46;100331.75;5072676;28;49862;-70
2022/09/27 08:40:47;;;;;;;;;3.25;1.00;;;;;14.91;73.95;100336.13;5072467;28;50598;-72
2022/09/27 08:43:22;;;;;;;;;1.75;1.75;;;;;14.95;73.35;100335.22;5072584;27;49654;-69
2022/09/27 08:45:58;;;;;;;;;2.75;2.75;;;;;14.95;74.85;100340.50;5072455;28;50231;-72
2022/09/27 08:48:26;;;;;;;;;1.75;1.25;;;;;14.90;75.71;100343.16;5066662;28;49743;-75
2022/09/27 08:50:53;;;;;;;;;0.75;0.75;;;;;14.89;74.65;100330.84;5070454;28;52414;-74
2022/09/27 08:53:56;;;;;;;;;1.00;1.00;;;;;14.87;74.67;100333.50;5071798;28;49883;-76
2022/09/27 08:56:22;;;;;;;;;2.00;1.00;;;;;14.86;74.91;100321.16;5072001;28;49778;-83
2022/09/27 08:59:20;;;;;;;;;0.75;0.75;;;;;14.84;74.16;100311.47;5072610;28;50097;-76
2022/09/27 09:01:47;;;;;;;;;3.00;1.00;;;;;14.84;74.02;100322.91;5068005;28;50760;-76
2022/09/27 09:04:22;;;;;;;;;1.75;0.75;;;;;14.85;72.27;100322.03;5072080;28;49736;-75
2022/09/27 09:07:13;;;;;;;;;1.25;1.00;;;;;14.67;73.06;100305.34;5068979;27;49951;-77
2022/09/27 09:09:50;;;;;;;;;1.25;1.25;;;;;14.86;73.20;100342.31;5057898;28;50374;-73
2022/09/27 09:12:46;;;;;;;;;2.50;2.00;;;;;15.01;72.97;100356.34;5060950;28;50267;-77
2022/09/27 09:15:31;;;;;;;;;1.00;1.00;;;;;15.09;73.12;100344.84;5059894;28;49933;-69
2022/09/27 09:18:18;;;;;;;;;1.00;0.50;;;;;15.19;73.33;100340.41;5059510;27;49874;-71
2022/09/27 09:21:27;;;;;;;;;1.50;1.00;;;;;15.31;73.05;100340.34;5062566;28;49831;-69
2022/09/27 09:24:07;;;;;;;;;1.25;1.25;;;;;15.29;71.52;100317.44;5039333;28;49807;-67
2022/09/27 09:27:01;;;;;;;;;0.75;0.75;;;;;15.33;71.32;100312.09;5037019;28;50244;-69
2022/09/27 09:29:26;;;;;;;;;3.00;0.50;;;;;15.45;71.56;100308.53;5057270;28;50055;-68
2022/09/27 09:32:33;;;;;;;;;1.75;1.25;;;;;15.42;72.45;100298.81;5060875;28;50491;-68
2022/09/27 09:35:05;;;;;;;;;1.00;1.00;;;;;15.51;72.01;100302.31;5052822;28;50799;-68
2022/09/27 09:37:40;;;;;;;;;0.75;0.75;;;;;15.50;70.12;100272.34;5062423;28;50070;-70
2022/09/27 09:40:17;;;;;;;;;0.75;0.75;;;;;15.73;70.42;100291.63;5059545;28;49791;-71
2022/09/27 09:43:00;;;;;;;;;1.75;1.75;;;;;15.65;68.73;100297.84;5061506;28;49905;-70
2022/09/27 09:45:29;;;;;;;;;0.75;0.75;;;;;15.52;68.45;100283.78;5060668;27;50780;-70
2022/09/27 09:48:24;;;;;;;;;1.00;1.00;;;;;15.59;69.06;100287.25;5062371;28;51151;-75
2022/09/27 09:50:55;;;;;;;;;2.00;1.00;;;;;15.50;68.34;100261.75;5061996;28;50139;-74
2022/09/27 09:53:48;;;;;;;;;0.50;0.00;;;;;15.67;66.55;100266.97;5060708;28;49819;-80
2022/09/27 09:56:20;;;;;;;;;1.00;1.00;;;;;15.91;65.66;100287.91;5058704;28;51098;-72
2022/09/27 09:58:53;;;;;;;;;0.00;0.00;;;;;15.94;63.81;100274.69;5062097;28;50008;-69
2022/09/27 10:01:27;;;;;;;;;1.00;1.00;;;;;15.86;63.74;100238.56;5061886;28;49933;-69
2022/09/27 10:03:56;;;;;;;;;0.00;0.00;;;;;16.06;62.64;100252.50;5062042;27;50232;-69
2022/09/27 10:06:23;;;;;;;;;0.25;0.25;;;;;16.12;61.46;100244.50;5061942;27;50600;-69
2022/09/27 10:08:53;;;;;;;;;0.00;0.00;;;;;16.18;60.09;100256.78;5062414;27;49925;-69
2022/09/27 10:11:21;;;;;;;;;1.00;0.75;;;;;16.06;60.75;100236.59;5061695;28;50024;-69
2022/09/27 10:13:46;;;;;;;;;0.00;0.00;;;;;16.14;61.05;100242.72;5061691;28;50507;-69
2022/09/27 10:16:16;;;;;;;;;0.75;0.75;;;;;16.28;61.04;100242.56;5059349;28;50213;-68
2022/09/27 10:18:41;;;;;;;;;1.00;1.00;;;;;16.29;59.82;100233.72;5057722;28;50192;-69
2022/09/27 10:21:14;;;;;;;;;0.25;0.25;;;;;16.19;57.71;100210.88;5061097;27;50391;-69
2022/09/27 10:24:10;;;;;;;;;0.00;0.00;;;;;16.56;57.52;100251.94;5060924;28;50072;-68
2022/09/27 10:26:37;;;;;;;;;1.00;0.00;;;;;16.68;57.03;100250.03;5060408;28;50095;-71
2022/09/27 10:29:18;;;;;;;;;2.50;0.25;;;;;16.82;56.97;100259.63;5059788;28;49795;-69
2022/09/27 10:31:47;;;;;;;;;0.00;0.00;;;;;16.93;57.63;100264.78;5061735;27;50295;-69
2022/09/27 10:34:32;;;;;;;;;1.00;0.00;;;;;16.87;56.47;100251.59;5060805;28;50126;-71
2022/09/27 10:37:17;;;;;;;;;0.00;0.00;;;;;16.87;56.42;100264.84;5061815;28;50337;-70
2022/09/27 10:39:49;;;;;;;;;1.25;0.00;;;;;16.69;57.03;100260.66;5062367;27;49858;-71
2022/09/27 10:42:36;;;;;;;;;1.50;0.25;;;;;16.57;60.41;100266.06;5066248;28;49800;-69
2022/09/27 10:45:33;;;;;;;;;0.50;0.50;;;;;16.62;60.42;100269.56;5066777;28;49893;-72
2022/09/27 10:48:00;;;;;;;;;2.50;0.00;;;;;16.06;63.15;100185.44;5078549;27;52433;-76
2022/09/27 10:50:30;;;;;;;;;0.75;0.75;;;;;15.85;64.63;100182.13;5077826;28;49573;-75
2022/09/27 10:53:11;;;;;;;;;0.00;0.00;;;;;16.34;64.63;100268.13;5073169;28;49780;-79
2022/09/27 10:55:38;;;;;;;;;0.00;0.00;;;;;15.73;65.67;100172.53;5059541;28;50334;-75
2022/09/27 10:58:04;;;;;;;;;0.00;0.00;;;;;15.94;66.37;100197.91;5095927;27;51205;-76
2022/09/27 11:00:32;;;;;;;;;1.25;0.00;;;;;15.42;66.91;100103.09;5072864;27;49783;-75
2022/09/27 11:03:05;;;;;;;;;1.00;1.00;;;;;16.40;66.38;100268.03;5073647;27;49461;-74
2022/09/27 11:05:34;;;;;;;;;0.50;0.50;;;;;16.51;65.77;100261.75;5079451;27;49719;-74
2022/09/27 11:08:21;;;;;;;;;2.00;2.00;;;;;16.59;66.67;100253.69;5066239;27;50108;-75
2022/09/27 11:11:15;;;;;;;;;1.25;1.25;;;;;16.71;66.07;100256.25;5058271;27;50360;-77
2022/09/27 11:13:57;;;;;;;;;0.00;0.00;;;;;15.68;65.91;100084.38;5060193;27;50122;-77
2022/09/27 11:17:19;;;;;;;;;2.25;1.75;;;;;16.91;66.39;100266.59;5061098;28;50489;-74
2022/09/27 11:20:03;;;;;;;;;2.00;2.00;;;;;17.02;65.19;100266.44;5046828;27;50558;-77
2022/09/27 11:23:07;;;;;;;;;0.00;0.00;;;;;16.75;64.08;100222.59;5063549;28;50007;-75
2022/09/27 11:25:50;;;;;;;;;1.75;1.75;;;;;17.09;65.60;100254.88;5038968;28;50975;-79
2022/09/27 11:28:27;;;;;;;;;1.00;1.00;;;;;17.11;64.90;100264.53;5060304;28;49708;-77
2022/09/27 11:31:11;;;;;;;;;0.75;0.75;;;;;16.84;67.52;100249.88;5065246;27;49928;-74
2022/09/27 11:33:55;;;;;;;;;2.75;1.75;;;;;16.63;67.56;100238.63;5074042;27;49991;-74
2022/09/27 11:36:45;;;;;;;;;0.00;0.00;;;;;16.80;66.97;100252.59;5073428;27;49934;-74
2022/09/27 11:39:31;;;;;;;;;1.00;1.00;;;;;16.80;66.34;100248.16;5066693;28;49760;-74
2022/09/27 11:42:42;;;;;;;;;0.25;0.25;;;;;16.80;64.62;100257.91;5068768;27;50651;-74
2022/09/27 11:45:29;;;;;;;;;1.25;1.25;;;;;16.73;63.55;100243.84;5049650;28;50041;-74
2022/09/27 11:48:22;;;;;;;;;1.25;0.00;;;;;16.65;65.06;100244.78;5073316;27;49798;-74
2022/09/27 11:51:06;;;;;;;;;2.50;1.00;;;;;16.24;65.15;100162.28;5073017;27;49952;-75
2022/09/27 11:53:58;;;;;;;;;2.00;2.00;;;;;16.57;64.57;100232.50;5072990;27;50352;-74
2022/09/27 11:56:50;;;;;;;;;1.00;1.00;;;;;16.33;64.12;100237.22;5073112;28;50014;-73